createdAt,value
2018-07-31T00:02:08.185Z,96.70
2018-07-31T00:04:36.410Z,96.80
2018-07-31T00:07:04.675Z,97.30
2018-07-31T00:09:32.942Z,97.70
2018-07-31T00:12:01.176Z,97.90
2018-07-31T00:14:29.406Z,97.80
2018-07-31T00:16:57.646Z,97.10
2018-07-31T00:19:25.867Z,96.70
2018-07-31T00:21:54.159Z,96.80
2018-07-31T00:24:22.383Z,96.90
2018-07-31T00:26:50.707Z,96.60
2018-07-31T00:29:18.923Z,97.10
2018-07-31T00:31:47.152Z,97.60
2018-07-31T00:34:15.372Z,97.30
2018-07-31T00:36:43.615Z,97.30
2018-07-31T00:41:41.224Z,96.60
2018-07-31T00:44:09.540Z,96.70
2018-07-31T00:46:37.994Z,96.70
2018-07-31T00:49:06.321Z,96.30
2018-07-31T00:51:34.641Z,95.90
2018-07-31T00:54:02.884Z,96.30
2018-07-31T00:56:31.124Z,97.00
2018-07-31T00:58:59.417Z,96.30
2018-07-31T01:01:27.671Z,97.30
2018-07-31T01:03:56.198Z,97.20
2018-07-31T01:06:32.532Z,97.10
2018-07-31T01:09:00.825Z,97.20
2018-07-31T01:11:29.064Z,97.30
2018-07-31T01:16:25.337Z,97.90
2018-07-31T01:18:53.726Z,97.90
2018-07-31T01:21:21.989Z,98.10
2018-07-31T01:23:50.289Z,98.30
2018-07-31T01:26:18.582Z,98.50
2018-07-31T01:28:46.809Z,98.70
2018-07-31T01:31:15.062Z,98.80
2018-07-31T01:33:43.336Z,98.50
2018-07-31T01:36:11.589Z,98.70
2018-07-31T01:38:39.849Z,99.10
2018-07-31T01:43:39.154Z,98.90
2018-07-31T01:46:07.401Z,99.00
2018-07-31T01:48:35.689Z,98.70
2018-07-31T01:51:03.907Z,98.70
2018-07-31T01:53:32.128Z,98.40
2018-07-31T01:56:00.402Z,98.50
2018-07-31T01:58:28.631Z,98.20
2018-07-31T02:00:56.883Z,98.40
2018-07-31T02:03:25.195Z,98.70
2018-07-31T02:05:53.527Z,98.80
2018-07-31T02:08:21.741Z,98.40
2018-07-31T02:10:50.252Z,98.50
2018-07-31T02:13:18.998Z,98.50
2018-07-31T02:15:47.294Z,98.70
2018-07-31T02:18:15.576Z,98.90
2018-07-31T02:20:43.812Z,98.80
2018-07-31T02:23:12.653Z,98.70
2018-07-31T02:25:41.416Z,98.90
2018-07-31T02:28:10.074Z,98.40
2018-07-31T02:30:38.284Z,98.00
2018-07-31T02:33:06.524Z,97.90
2018-07-31T02:35:34.774Z,97.80
2018-07-31T02:38:03.077Z,97.40
2018-07-31T02:40:31.342Z,97.50
2018-07-31T02:42:59.627Z,97.60
2018-07-31T02:45:27.910Z,98.40
2018-07-31T02:47:56.176Z,98.40
2018-07-31T02:50:24.412Z,98.40
2018-07-31T02:52:52.667Z,98.20
2018-07-31T02:55:20.931Z,98.30
2018-07-31T02:57:49.140Z,98.00
2018-07-31T03:00:17.384Z,98.00
2018-07-31T03:02:45.614Z,96.90
2018-07-31T03:05:13.894Z,96.90
2018-07-31T03:07:42.170Z,96.90
2018-07-31T03:10:11.185Z,96.80
2018-07-31T03:12:39.406Z,97.20
2018-07-31T03:15:08.905Z,97.80
2018-07-31T03:17:37.182Z,97.80
2018-07-31T03:20:06.067Z,98.30
2018-07-31T03:22:34.319Z,98.10
2018-07-31T03:25:02.829Z,98.90
2018-07-31T03:27:31.098Z,99.60
2018-07-31T03:29:59.325Z,99.70
2018-07-31T03:32:27.611Z,99.90
2018-07-31T03:34:55.855Z,99.90
2018-07-31T03:37:24.123Z,99.90
2018-07-31T03:39:52.646Z,99.90
2018-07-31T03:42:20.920Z,99.90
2018-07-31T03:44:49.135Z,99.90
2018-07-31T03:47:17.354Z,99.90
2018-07-31T03:49:45.596Z,99.90
2018-07-31T03:54:41.844Z,98.80
2018-07-31T03:57:10.103Z,98.30
2018-07-31T03:59:38.323Z,98.00
2018-07-31T04:02:06.579Z,97.60
2018-07-31T04:04:34.871Z,97.40
2018-07-31T04:07:03.067Z,97.60
2018-07-31T04:09:31.304Z,97.70
2018-07-31T04:11:59.532Z,97.20
2018-07-31T04:14:27.755Z,97.10
2018-07-31T04:16:56.020Z,96.40
2018-07-31T04:19:24.236Z,96.40
2018-07-31T04:21:52.505Z,96.30
2018-07-31T04:24:20.832Z,96.30
2018-07-31T04:26:49.043Z,96.30
2018-07-31T04:29:17.264Z,96.30
2018-07-31T04:31:45.530Z,96.20
2018-07-31T04:34:13.810Z,96.20
2018-07-31T04:39:16.692Z,96.00
2018-07-31T04:41:44.955Z,96.00
2018-07-31T04:44:13.240Z,96.00
2018-07-31T04:46:41.507Z,96.00
2018-07-31T04:49:09.786Z,96.00
2018-07-31T04:51:38.033Z,96.00
2018-07-31T04:54:06.371Z,96.00
2018-07-31T04:56:34.619Z,96.00
2018-07-31T04:59:02.844Z,96.00
2018-07-31T05:01:31.074Z,96.10
2018-07-31T05:03:59.300Z,95.90
2018-07-31T05:06:27.575Z,95.40
2018-07-31T05:08:55.805Z,95.60
2018-07-31T05:11:24.100Z,95.80
2018-07-31T05:13:52.334Z,95.70
2018-07-31T05:16:20.555Z,95.80
2018-07-31T05:18:48.770Z,95.70
2018-07-31T05:21:17.598Z,95.80
2018-07-31T05:23:45.852Z,95.80
2018-07-31T05:26:14.152Z,96.00
2018-07-31T05:28:42.418Z,96.00
2018-07-31T05:31:10.636Z,96.20
2018-07-31T05:33:38.880Z,96.20
2018-07-31T05:36:07.096Z,96.30
2018-07-31T05:38:35.520Z,96.40
2018-07-31T05:41:03.765Z,96.30
2018-07-31T05:43:32.035Z,96.50
2018-07-31T05:46:00.495Z,96.30
2018-07-31T05:48:28.791Z,96.50
2018-07-31T05:50:57.305Z,96.60
2018-07-31T05:53:32.498Z,96.30
2018-07-31T05:56:00.980Z,96.30
2018-07-31T05:58:29.221Z,96.30
2018-07-31T06:00:57.440Z,96.20
2018-07-31T06:03:25.791Z,96.20
2018-07-31T06:05:54.032Z,96.00
2018-07-31T06:08:22.366Z,96.20
2018-07-31T06:10:50.604Z,96.30
2018-07-31T06:13:18.919Z,96.10
2018-07-31T06:15:47.221Z,95.90
2018-07-31T06:18:15.561Z,95.80
2018-07-31T06:20:43.806Z,96.20
2018-07-31T06:23:12.067Z,96.30
2018-07-31T06:25:40.375Z,96.10
2018-07-31T06:28:08.580Z,96.00
2018-07-31T06:30:36.808Z,95.80
2018-07-31T06:33:05.087Z,95.70
2018-07-31T06:35:33.350Z,95.10
2018-07-31T06:38:01.635Z,95.10
2018-07-31T06:40:30.114Z,94.80
2018-07-31T06:42:58.304Z,94.70
2018-07-31T06:45:26.620Z,94.70
2018-07-31T06:47:54.859Z,94.90
2018-07-31T06:50:23.138Z,95.20
2018-07-31T06:52:51.496Z,95.30
2018-07-31T06:55:19.727Z,95.10
2018-07-31T06:57:47.957Z,95.00
2018-07-31T07:00:16.221Z,94.60
2018-07-31T07:02:44.494Z,94.50
2018-07-31T07:05:12.778Z,94.40
2018-07-31T07:07:41.003Z,94.40
2018-07-31T07:10:09.239Z,94.20
2018-07-31T07:12:37.483Z,94.10
2018-07-31T07:15:05.731Z,94.20
2018-07-31T07:17:34.060Z,94.60
2018-07-31T07:20:02.316Z,94.10
2018-07-31T07:22:30.616Z,94.20
2018-07-31T07:24:58.825Z,93.70
2018-07-31T07:27:27.050Z,93.90
2018-07-31T07:29:55.353Z,94.20
2018-07-31T07:32:23.603Z,94.10
2018-07-31T07:34:51.875Z,94.10
2018-07-31T07:37:20.147Z,93.80
2018-07-31T07:39:48.410Z,93.90
2018-07-31T07:42:16.714Z,93.60
2018-07-31T07:44:44.967Z,93.50
2018-07-31T07:47:13.423Z,93.50
2018-07-31T07:49:42.036Z,93.40
2018-07-31T07:52:10.394Z,92.90
2018-07-31T07:54:38.672Z,92.60
2018-07-31T07:57:06.966Z,92.10
2018-07-31T07:59:35.459Z,92.00
2018-07-31T08:02:03.740Z,92.10
2018-07-31T08:04:31.982Z,92.10
2018-07-31T08:07:00.243Z,92.10
2018-07-31T08:09:28.510Z,92.70
2018-07-31T08:11:56.727Z,92.40
2018-07-31T08:14:24.998Z,92.50
2018-07-31T08:16:53.223Z,93.00
2018-07-31T08:19:21.490Z,92.60
2018-07-31T08:21:49.701Z,92.70
2018-07-31T08:24:17.957Z,92.40
2018-07-31T08:26:46.222Z,92.50
2018-07-31T08:29:14.471Z,92.50
2018-07-31T08:31:42.752Z,92.40
2018-07-31T08:34:10.953Z,92.70
2018-07-31T08:36:39.245Z,92.10
2018-07-31T08:41:36.437Z,92.20
2018-07-31T08:44:05.252Z,92.10
2018-07-31T08:46:33.506Z,92.00
2018-07-31T08:49:01.798Z,92.10
2018-07-31T08:51:30.307Z,92.20
2018-07-31T08:53:58.663Z,92.10
2018-07-31T08:56:26.905Z,92.00
2018-07-31T08:58:55.110Z,92.00
2018-07-31T09:01:23.359Z,92.00
2018-07-31T09:03:52.097Z,91.60
2018-07-31T09:06:20.350Z,91.50
2018-07-31T09:11:16.636Z,92.20
2018-07-31T09:13:44.848Z,90.60
2018-07-31T09:16:13.111Z,90.80
2018-07-31T09:18:41.326Z,90.80
2018-07-31T09:21:09.597Z,91.20
2018-07-31T09:23:37.855Z,90.50
2018-07-31T09:26:06.076Z,90.00
2018-07-31T09:28:34.279Z,90.20
2018-07-31T09:31:08.018Z,88.90
2018-07-31T09:33:36.169Z,89.20
2018-07-31T09:36:04.401Z,90.00
2018-07-31T09:38:32.616Z,89.80
2018-07-31T09:41:00.841Z,89.50
2018-07-31T09:43:29.089Z,88.40
2018-07-31T09:45:57.323Z,88.80
2018-07-31T09:48:25.548Z,89.00
2018-07-31T09:50:54.370Z,88.30
2018-07-31T09:53:22.619Z,87.40
2018-07-31T09:55:50.798Z,87.30
2018-07-31T09:58:19.070Z,86.30
2018-07-31T10:00:52.695Z,85.60
2018-07-31T10:03:20.917Z,85.20
2018-07-31T10:05:49.169Z,85.70
2018-07-31T10:08:20.276Z,83.40
2018-07-31T10:10:49.207Z,83.20
2018-07-31T10:13:17.442Z,83.70
2018-07-31T10:15:45.672Z,82.10
2018-07-31T10:18:14.228Z,81.90
2018-07-31T10:20:42.387Z,82.10
2018-07-31T10:25:38.885Z,81.00
2018-07-31T10:28:07.191Z,81.90
2018-07-31T10:30:35.761Z,79.90
2018-07-31T10:33:04.100Z,79.50
2018-07-31T10:35:32.365Z,77.80
2018-07-31T10:38:00.626Z,78.90
2018-07-31T10:40:28.989Z,77.10
2018-07-31T10:42:57.243Z,77.10
2018-07-31T10:45:25.647Z,77.10
2018-07-31T10:47:53.867Z,77.50
2018-07-31T10:50:22.119Z,77.80
2018-07-31T10:52:50.370Z,77.40
2018-07-31T10:57:46.550Z,76.30
2018-07-31T11:00:14.778Z,77.10
2018-07-31T11:02:43.039Z,75.60
2018-07-31T11:05:11.237Z,74.70
2018-07-31T11:07:39.879Z,73.00
2018-07-31T11:10:08.142Z,72.90
2018-07-31T11:12:36.767Z,73.50
2018-07-31T11:15:05.716Z,72.40
2018-07-31T11:17:33.943Z,71.10
2018-07-31T11:20:02.300Z,73.10
2018-07-31T11:22:30.606Z,71.90
2018-07-31T11:24:58.887Z,71.50
2018-07-31T11:27:27.150Z,72.60
2018-07-31T11:29:55.405Z,72.50
2018-07-31T11:34:51.710Z,72.80
2018-07-31T11:37:19.962Z,72.00
2018-07-31T11:39:48.183Z,71.70
2018-07-31T11:42:16.421Z,72.10
2018-07-31T11:44:44.654Z,71.50
2018-07-31T11:47:13.687Z,70.10
2018-07-31T11:49:42.043Z,70.80
2018-07-31T11:52:10.236Z,67.80
2018-07-31T11:54:38.556Z,68.30
2018-07-31T11:57:06.811Z,69.40
2018-07-31T11:59:35.046Z,68.60
2018-07-31T12:02:03.289Z,69.70
2018-07-31T12:04:31.538Z,68.20
2018-07-31T12:06:59.791Z,68.10
2018-07-31T12:09:28.050Z,69.10
2018-07-31T12:11:56.292Z,68.30
2018-07-31T12:16:52.555Z,67.50
2018-07-31T12:19:20.768Z,69.20
2018-07-31T12:21:49.002Z,67.90
2018-07-31T12:24:17.218Z,68.20
2018-07-31T12:26:45.499Z,68.00
2018-07-31T12:29:13.816Z,66.20
2018-07-31T12:31:42.046Z,67.50
2018-07-31T12:34:13.298Z,67.80
2018-07-31T12:36:41.594Z,67.70
2018-07-31T12:39:11.826Z,68.10
2018-07-31T12:41:40.079Z,68.10
2018-07-31T12:44:08.417Z,67.40
2018-07-31T12:46:37.494Z,66.00
2018-07-31T12:49:05.708Z,67.00
2018-07-31T12:51:33.969Z,64.30
2018-07-31T12:54:02.278Z,65.50
2018-07-31T12:56:30.570Z,64.20
2018-07-31T12:58:58.806Z,64.50
2018-07-31T13:01:27.085Z,64.00
2018-07-31T13:03:55.352Z,64.40
2018-07-31T13:06:23.601Z,62.90
2018-07-31T13:08:51.831Z,62.80
2018-07-31T13:11:20.080Z,61.90
2018-07-31T13:13:48.308Z,63.10
2018-07-31T13:16:16.575Z,63.40
2018-07-31T13:18:44.806Z,62.60
2018-07-31T13:21:13.056Z,62.40
2018-07-31T13:23:41.317Z,62.20
2018-07-31T13:26:09.555Z,61.80
2018-07-31T13:28:37.831Z,62.20
2018-07-31T13:31:06.097Z,61.00
2018-07-31T13:33:34.380Z,61.40
2018-07-31T13:36:03.487Z,62.30
2018-07-31T13:38:31.871Z,62.30
2018-07-31T13:41:00.122Z,61.30
2018-07-31T13:43:28.384Z,63.00
2018-07-31T13:45:56.598Z,62.70
2018-07-31T13:48:24.823Z,63.20
2018-07-31T13:50:53.075Z,63.10
2018-07-31T13:53:21.395Z,63.80
2018-07-31T13:55:49.658Z,61.40
2018-07-31T13:58:17.871Z,63.10
2018-07-31T14:00:46.121Z,62.10
2018-07-31T14:03:14.411Z,63.10
2018-07-31T14:05:42.678Z,62.80
2018-07-31T14:08:10.950Z,62.30
2018-07-31T14:10:39.171Z,63.70
2018-07-31T14:13:07.394Z,62.80
2018-07-31T14:15:35.695Z,64.30
2018-07-31T14:18:03.934Z,64.20
2018-07-31T14:20:32.512Z,61.60
2018-07-31T14:23:00.759Z,63.00
2018-07-31T14:25:28.987Z,64.10
2018-07-31T14:27:57.353Z,62.70
2018-07-31T14:30:25.717Z,62.30
2018-07-31T14:32:54.070Z,62.20
2018-07-31T14:35:22.374Z,62.60
2018-07-31T14:37:50.631Z,61.50
2018-07-31T14:40:18.881Z,60.00
2018-07-31T14:42:47.162Z,60.20
2018-07-31T14:45:15.403Z,61.30
2018-07-31T14:47:50.182Z,62.40
2018-07-31T14:50:18.406Z,62.10
2018-07-31T14:52:46.661Z,61.70
2018-07-31T14:55:14.876Z,61.40
2018-07-31T14:57:43.087Z,61.10
2018-07-31T15:00:11.353Z,60.30
2018-07-31T15:02:39.601Z,61.50
2018-07-31T15:05:07.859Z,60.50
2018-07-31T15:07:36.076Z,60.70
2018-07-31T15:10:05.132Z,61.00
2018-07-31T15:12:33.435Z,60.70
2018-07-31T15:15:01.774Z,60.50
2018-07-31T15:17:30.025Z,62.50
2018-07-31T15:19:58.277Z,61.00
2018-07-31T15:22:26.526Z,60.80
2018-07-31T15:24:54.760Z,60.30
2018-07-31T15:27:23.055Z,59.70
2018-07-31T15:29:51.307Z,60.00
2018-07-31T15:32:19.562Z,60.00
2018-07-31T15:34:47.791Z,59.70
2018-07-31T15:37:16.051Z,60.20
2018-07-31T15:39:44.293Z,59.70
2018-07-31T15:42:12.553Z,61.70
2018-07-31T15:44:40.821Z,61.60
2018-07-31T15:47:09.102Z,62.10
2018-07-31T15:49:37.337Z,63.80
2018-07-31T15:52:05.638Z,64.00
2018-07-31T15:54:33.866Z,63.70
2018-07-31T15:57:02.130Z,64.10
2018-07-31T15:59:30.533Z,63.50
2018-07-31T16:01:58.736Z,64.00
2018-07-31T16:04:26.963Z,63.50
2018-07-31T16:06:55.168Z,64.40
2018-07-31T16:09:23.382Z,65.30
2018-07-31T16:11:51.692Z,65.50
2018-07-31T16:14:19.935Z,66.20
2018-07-31T16:16:48.143Z,66.60
2018-07-31T16:19:16.401Z,67.40
2018-07-31T16:21:44.635Z,67.30
2018-07-31T16:24:12.905Z,67.10
2018-07-31T16:26:41.195Z,66.50
2018-07-31T16:29:09.517Z,67.80
2018-07-31T16:31:37.799Z,68.40
2018-07-31T16:34:06.291Z,69.20
2018-07-31T16:36:34.544Z,69.60
2018-07-31T16:39:02.942Z,69.80
2018-07-31T16:41:31.227Z,70.10
2018-07-31T16:43:59.441Z,70.20
2018-07-31T16:46:27.646Z,70.20
2018-07-31T16:48:55.862Z,70.20
2018-07-31T16:51:24.098Z,70.70
2018-07-31T16:53:52.346Z,70.50
2018-07-31T16:56:20.573Z,70.90
2018-07-31T16:58:48.867Z,70.80
2018-07-31T17:01:17.111Z,70.60
2018-07-31T17:03:45.400Z,70.30
2018-07-31T17:06:13.624Z,70.50
2018-07-31T17:08:41.958Z,70.90
2018-07-31T17:11:10.224Z,71.60
2018-07-31T17:13:38.823Z,71.00
2018-07-31T17:16:07.087Z,70.30
2018-07-31T17:18:35.355Z,71.30
2018-07-31T17:21:03.606Z,70.80
2018-07-31T17:23:31.819Z,70.80
2018-07-31T17:26:00.052Z,70.90
2018-07-31T17:28:28.299Z,70.90
2018-07-31T17:30:56.559Z,71.30
2018-07-31T17:33:24.791Z,71.90
2018-07-31T17:35:53.115Z,71.50
2018-07-31T17:38:21.351Z,72.20
2018-07-31T17:40:49.604Z,71.80
2018-07-31T17:43:17.823Z,72.60
2018-07-31T17:45:48.301Z,72.40
2018-07-31T17:48:16.565Z,72.30
2018-07-31T17:50:44.979Z,72.00
2018-07-31T17:53:13.215Z,72.80
2018-07-31T17:55:41.484Z,73.50
2018-07-31T17:58:09.736Z,74.30
2018-07-31T18:00:38.040Z,74.60
2018-07-31T18:03:06.295Z,74.90
2018-07-31T18:05:34.539Z,75.10
2018-07-31T18:08:02.752Z,75.60
2018-07-31T18:10:31.051Z,75.40
2018-07-31T18:12:59.296Z,76.00
2018-07-31T18:15:27.552Z,76.60
2018-07-31T18:17:55.765Z,77.10
2018-07-31T18:20:24.077Z,76.80
2018-07-31T18:22:52.426Z,76.30
2018-07-31T18:25:20.655Z,76.30
2018-07-31T18:27:48.901Z,76.30
2018-07-31T18:30:17.136Z,78.20
2018-07-31T18:32:45.392Z,79.70
2018-07-31T18:35:13.664Z,78.90
2018-07-31T18:37:41.896Z,79.20
2018-07-31T18:40:10.120Z,79.40
2018-07-31T18:42:38.375Z,79.50
2018-07-31T18:45:06.617Z,79.70
2018-07-31T18:47:34.878Z,79.80
2018-07-31T18:50:03.108Z,78.70
2018-07-31T18:52:31.347Z,78.80
2018-07-31T18:54:59.600Z,79.10
2018-07-31T18:57:27.851Z,80.50
2018-07-31T18:59:56.106Z,80.20
2018-07-31T19:02:24.332Z,80.40
2018-07-31T19:04:52.791Z,79.50
2018-07-31T19:07:21.045Z,80.20
2018-07-31T19:09:49.261Z,81.00
2018-07-31T19:12:17.529Z,81.40
2018-07-31T19:14:45.775Z,83.40
2018-07-31T19:17:14.123Z,82.40
2018-07-31T19:19:42.386Z,82.70
2018-07-31T19:22:10.657Z,83.60
2018-07-31T19:24:38.905Z,82.60
2018-07-31T19:27:07.169Z,81.80
2018-07-31T19:29:35.412Z,82.60
2018-07-31T19:32:03.656Z,82.80
2018-07-31T19:34:31.938Z,83.30
2018-07-31T19:37:01.238Z,83.50
2018-07-31T19:39:29.654Z,84.50
2018-07-31T19:41:57.925Z,83.00
2018-07-31T19:44:26.149Z,84.10
2018-07-31T19:46:54.407Z,84.30
2018-07-31T19:49:22.651Z,85.00
2018-07-31T19:51:50.897Z,84.90
2018-07-31T19:54:19.133Z,84.80
2018-07-31T19:56:47.411Z,85.10
2018-07-31T19:59:15.652Z,87.30
2018-07-31T20:01:43.867Z,86.00
2018-07-31T20:04:12.074Z,87.10
2018-07-31T20:06:40.321Z,86.00
2018-07-31T20:09:09.441Z,86.50
2018-07-31T20:11:37.718Z,86.70
2018-07-31T20:14:05.985Z,86.00
2018-07-31T20:16:34.242Z,85.70
2018-07-31T20:19:02.540Z,86.70
2018-07-31T20:21:30.797Z,88.10
2018-07-31T20:23:59.080Z,90.10
2018-07-31T20:26:27.329Z,90.00
2018-07-31T20:28:55.586Z,90.40
2018-07-31T20:31:23.847Z,90.00
2018-07-31T20:33:52.113Z,90.40
2018-07-31T20:36:20.350Z,90.10
2018-07-31T20:38:48.898Z,90.30
2018-07-31T20:46:58.395Z,91.00
2018-07-31T20:49:26.619Z,91.00
2018-07-31T20:51:54.837Z,91.30
2018-07-31T20:54:23.096Z,91.10
2018-07-31T20:56:51.331Z,91.00
2018-07-31T20:59:19.570Z,90.80
2018-07-31T21:01:47.778Z,91.10
2018-07-31T21:04:16.020Z,91.00
2018-07-31T21:06:44.249Z,91.20
2018-07-31T21:09:16.749Z,91.30
2018-07-31T21:11:44.972Z,91.60
2018-07-31T21:14:13.176Z,91.50
2018-07-31T21:16:41.622Z,91.70
2018-07-31T21:19:09.826Z,91.50
2018-07-31T21:21:38.091Z,91.50
2018-07-31T21:24:06.355Z,91.60
2018-07-31T21:26:34.586Z,92.30
2018-07-31T21:29:02.838Z,91.70
2018-07-31T21:31:31.207Z,91.80
2018-07-31T21:33:59.476Z,91.50
2018-07-31T21:36:27.753Z,91.70
2018-07-31T21:38:55.974Z,91.60
2018-07-31T21:41:24.272Z,91.90
2018-07-31T21:43:52.628Z,92.40
2018-07-31T21:46:20.837Z,92.20
2018-07-31T21:48:49.067Z,92.50
2018-07-31T21:51:17.755Z,93.00
2018-07-31T21:53:45.992Z,93.40
2018-07-31T21:56:14.239Z,93.90
2018-07-31T21:58:42.451Z,94.00
2018-07-31T22:01:10.668Z,94.00
2018-07-31T22:03:39.475Z,93.70
2018-07-31T22:06:08.088Z,93.30
2018-07-31T22:08:37.050Z,93.00
2018-07-31T22:11:07.535Z,92.70
2018-07-31T22:13:35.788Z,93.50
2018-07-31T22:16:04.064Z,93.80
2018-07-31T22:18:32.299Z,93.60
2018-07-31T22:21:00.518Z,93.50
2018-07-31T22:23:28.749Z,92.70
2018-07-31T22:25:56.968Z,92.70
2018-07-31T22:30:53.269Z,93.10
2018-07-31T22:33:21.528Z,93.50
2018-07-31T22:35:49.771Z,93.00
2018-07-31T22:38:17.982Z,92.40
2018-07-31T22:40:46.206Z,92.70
2018-07-31T22:43:14.462Z,92.80
2018-07-31T22:45:42.715Z,92.60
2018-07-31T22:48:10.940Z,92.70
2018-07-31T22:50:39.175Z,93.20
2018-07-31T22:53:07.400Z,93.60
2018-07-31T22:55:35.630Z,93.50
2018-07-31T22:58:03.886Z,93.50
2018-07-31T23:00:32.127Z,93.80
2018-07-31T23:03:00.392Z,94.30
2018-07-31T23:05:28.640Z,93.80
2018-07-31T23:07:56.883Z,93.60
2018-07-31T23:10:25.114Z,93.80
2018-07-31T23:12:53.375Z,93.80
2018-07-31T23:15:21.616Z,93.80
2018-07-31T23:17:49.841Z,93.80
2018-07-31T23:20:18.106Z,93.80
2018-07-31T23:22:48.358Z,94.10
2018-07-31T23:27:44.560Z,93.60
2018-07-31T23:30:12.947Z,93.30
2018-07-31T23:32:41.690Z,93.10
2018-07-31T23:35:10.040Z,93.50
2018-07-31T23:37:38.324Z,93.40
2018-07-31T23:40:07.348Z,92.90
2018-07-31T23:42:35.552Z,93.30
2018-07-31T23:45:03.799Z,93.50
2018-07-31T23:47:32.168Z,93.50
2018-07-31T23:50:01.207Z,93.40
2018-07-31T23:52:29.698Z,93.60
2018-07-31T23:54:57.968Z,93.40
2018-07-31T23:57:26.207Z,93.40
2018-07-31T23:59:54.445Z,93.70
